Time;durP1;ratioP1;P1;durP2;ratioP2;P2;SDS_P1;SDS_P2;PMS_P1;PMS_P2;Temp;Humidity;BMP_temperature;BMP_pressure;BME280_temperature;BME280_humidity;BME280_pressure;Samples;Min_cycle;Max_cycle;Signal;HPM_P1;HPM_P2
2024/04/27 00:01:40;;;;;;;59.38;18.08;;;;;;;;;;4954773;28;20109;-76
2024/04/27 00:04:06;;;;;;;47.22;17.20;;;;;;;;;;4946841;29;20579;-80
2024/04/27 00:06:31;;;;;;;62.42;17.40;;;;;;;;;;4962103;28;20047;-79
2024/04/27 00:08:57;;;;;;;61.00;16.67;;;;;;;;;;4971848;28;20555;-79
2024/04/27 00:11:24;;;;;;;54.05;15.63;;;;;;;;;;4962947;28;20042;-79
2024/04/27 00:13:50;;;;;;;52.28;17.73;;;;;;;;;;4950036;29;20051;-79
2024/04/27 00:16:16;;;;;;;59.42;18.27;;;;;;;;;;4940587;29;20039;-79
2024/04/27 00:18:42;;;;;;;57.95;17.45;;;;;;;;;;4955313;29;20043;-79
2024/04/27 00:21:07;;;;;;;58.10;18.48;;;;;;;;;;4960273;29;20094;-79
2024/04/27 00:23:33;;;;;;;41.80;16.65;;;;;;;;;;4955474;29;20680;-78
2024/04/27 00:25:59;;;;;;;48.13;16.38;;;;;;;;;;4950182;29;20043;-80
2024/04/27 00:28:25;;;;;;;56.90;18.52;;;;;;;;;;4955960;28;20050;-79
2024/04/27 00:30:51;;;;;;;53.42;20.38;;;;;;;;;;4957821;28;20047;-80
2024/04/27 00:33:17;;;;;;;51.28;17.88;;;;;;;;;;4946236;29;20724;-79
2024/04/27 00:35:44;;;;;;;58.65;19.05;;;;;;;;;;4929857;29;20046;-78
2024/04/27 00:38:10;;;;;;;43.00;17.40;;;;;;;;;;4943203;29;20047;-79
2024/04/27 00:40:35;;;;;;;58.13;18.08;;;;;;;;;;4943639;28;20134;-78
2024/04/27 00:43:01;;;;;;;56.00;19.17;;;;;;;;;;4949562;29;20124;-79
2024/04/27 00:48:24;;;;;;;54.80;18.33;;;;;;;;;;4936953;28;20051;-76
2024/04/27 00:51:03;;;;;;;56.87;18.63;;;;;;;;;;4969283;28;20046;-80
2024/04/27 00:53:33;;;;;;;62.10;18.92;;;;;;;;;;4935049;28;20039;-80
2024/04/27 00:56:00;;;;;;;46.08;18.95;;;;;;;;;;4947773;29;20043;-80
2024/04/27 00:58:29;;;;;;;52.85;18.67;;;;;;;;;;4945941;28;20496;-77
2024/04/27 01:00:55;;;;;;;51.70;18.20;;;;;;;;;;4945498;28;20065;-80
2024/04/27 01:03:21;;;;;;;50.75;18.67;;;;;;;;;;4955917;28;20050;-77
2024/04/27 01:05:47;;;;;;;57.92;19.00;;;;;;;;;;4942701;28;20125;-80
2024/04/27 01:08:13;;;;;;;48.58;16.80;;;;;;;;;;4949609;28;20103;-79
2024/04/27 01:10:40;;;;;;;54.83;17.75;;;;;;;;;;4946788;28;20103;-77
2024/04/27 01:13:06;;;;;;;49.75;15.80;;;;;;;;;;4972580;28;20054;-78
2024/04/27 01:15:33;;;;;;;50.20;17.15;;;;;;;;;;4961426;28;20054;-78
2024/04/27 01:17:58;;;;;;;55.13;18.20;;;;;;;;;;4982933;28;20086;-79
2024/04/27 01:20:24;;;;;;;61.78;16.75;;;;;;;;;;4979999;28;20047;-80
2024/04/27 01:22:53;;;;;;;47.80;16.35;;;;;;;;;;4960250;28;20125;-76
2024/04/27 01:25:19;;;;;;;54.00;16.35;;;;;;;;;;4956767;28;20106;-78
2024/04/27 01:27:48;;;;;;;48.03;16.10;;;;;;;;;;4967204;28;20085;-76
2024/04/27 01:30:14;;;;;;;56.25;16.67;;;;;;;;;;4958371;28;20716;-77
2024/04/27 01:32:40;;;;;;;57.72;17.13;;;;;;;;;;4960329;28;20050;-77
2024/04/27 01:35:06;;;;;;;45.90;15.65;;;;;;;;;;4944554;28;20046;-78
2024/04/27 01:37:32;;;;;;;61.70;16.48;;;;;;;;;;4929599;28;20038;-79
2024/04/27 01:39:58;;;;;;;49.00;15.63;;;;;;;;;;4940883;28;20059;-79
2024/04/27 01:42:24;;;;;;;59.85;16.88;;;;;;;;;;4961772;28;20441;-79
2024/04/27 01:44:49;;;;;;;53.47;16.60;;;;;;;;;;4962639;28;20118;-80
2024/04/27 01:47:16;;;;;;;60.80;16.33;;;;;;;;;;4963294;28;20171;-80
2024/04/27 01:50:00;;;;;;;64.47;16.17;;;;;;;;;;4950197;28;20047;-80
2024/04/27 01:52:34;;;;;;;54.05;17.23;;;;;;;;;;4933862;28;20077;-80
2024/04/27 01:55:01;;;;;;;49.13;14.85;;;;;;;;;;4930159;28;20078;-78
2024/04/27 01:57:29;;;;;;;53.90;16.85;;;;;;;;;;4962794;28;20134;-79
2024/04/27 01:59:55;;;;;;;42.25;15.70;;;;;;;;;;4941338;29;20138;-79
2024/04/27 02:02:21;;;;;;;44.30;15.20;;;;;;;;;;4955916;28;20047;-76
2024/04/27 02:04:46;;;;;;;48.80;15.93;;;;;;;;;;4936568;29;20043;-78
2024/04/27 02:07:12;;;;;;;55.63;16.08;;;;;;;;;;4955829;28;20097;-79
2024/04/27 02:09:38;;;;;;;52.92;16.58;;;;;;;;;;4962975;28;20051;-78
2024/04/27 02:12:05;;;;;;;55.83;15.65;;;;;;;;;;4966194;28;20047;-79
2024/04/27 02:14:33;;;;;;;60.95;16.02;;;;;;;;;;4944814;28;20050;-78
2024/04/27 02:19:46;;;;;;;53.72;15.50;;;;;;;;;;4944620;28;20039;-78
2024/04/27 02:22:12;;;;;;;40.97;15.75;;;;;;;;;;4928929;29;20050;-78
2024/04/27 02:24:39;;;;;;;51.63;16.23;;;;;;;;;;4932969;28;20138;-79
2024/04/27 02:27:09;;;;;;;52.85;16.10;;;;;;;;;;4967111;28;20042;-79
2024/04/27 02:29:36;;;;;;;51.85;15.95;;;;;;;;;;4972647;28;20106;-81
2024/04/27 02:32:02;;;;;;;61.90;17.15;;;;;;;;;;4985168;28;20042;-83
2024/04/27 02:34:28;;;;;;;48.53;15.85;;;;;;;;;;4983239;28;20051;-81
2024/04/27 02:36:54;;;;;;;46.92;17.50;;;;;;;;;;4970169;28;20039;-76
2024/04/27 02:39:21;;;;;;;47.80;18.08;;;;;;;;;;4937943;28;20059;-82
2024/04/27 02:41:47;;;;;;;49.42;17.73;;;;;;;;;;4993902;28;20055;-80
2024/04/27 02:44:13;;;;;;;47.60;18.00;;;;;;;;;;4984786;28;20031;-81
2024/04/27 02:46:38;;;;;;;45.33;17.83;;;;;;;;;;4970382;29;20078;-84
2024/04/27 02:49:04;;;;;;;52.78;17.27;;;;;;;;;;4945192;29;20046;-85
2024/04/27 02:51:30;;;;;;;47.50;17.83;;;;;;;;;;4991050;28;20046;-83
2024/04/27 02:53:56;;;;;;;44.60;17.67;;;;;;;;;;4993013;28;20049;-81
2024/04/27 02:56:22;;;;;;;49.88;18.02;;;;;;;;;;4969880;29;20047;-85
2024/04/27 02:58:48;;;;;;;56.00;19.35;;;;;;;;;;4966842;29;20055;-80
2024/04/27 03:01:13;;;;;;;40.63;17.63;;;;;;;;;;4982333;28;20043;-82
2024/04/27 03:03:39;;;;;;;53.40;17.02;;;;;;;;;;4967304;29;20047;-82
2024/04/27 03:06:05;;;;;;;53.05;18.50;;;;;;;;;;4969502;28;20050;-82
2024/04/27 03:08:31;;;;;;;63.58;17.63;;;;;;;;;;4952298;29;20066;-83
2024/04/27 03:10:57;;;;;;;45.33;17.65;;;;;;;;;;4973061;28;20063;-82
2024/04/27 03:13:24;;;;;;;45.08;17.52;;;;;;;;;;4966493;28;20058;-83
2024/04/27 03:15:50;;;;;;;56.42;19.08;;;;;;;;;;4974031;28;20050;-82
2024/04/27 03:18:15;;;;;;;56.80;16.98;;;;;;;;;;4972773;28;20047;-79
2024/04/27 03:20:41;;;;;;;48.40;15.95;;;;;;;;;;4964177;29;20062;-80
2024/04/27 03:23:07;;;;;;;49.03;16.40;;;;;;;;;;4973899;28;20122;-84
2024/04/27 03:25:33;;;;;;;48.80;17.20;;;;;;;;;;4980316;28;20031;-84
2024/04/27 03:27:59;;;;;;;48.13;16.60;;;;;;;;;;4968528;29;20039;-82
2024/04/27 03:30:25;;;;;;;40.83;15.57;;;;;;;;;;4961996;29;20043;-82
2024/04/27 03:32:50;;;;;;;61.10;19.50;;;;;;;;;;4966846;29;20047;-83
2024/04/27 03:35:16;;;;;;;40.03;16.38;;;;;;;;;;4973133;29;20031;-80
2024/04/27 03:37:47;;;;;;;52.38;15.85;;;;;;;;;;4940204;29;20385;-80
2024/04/27 03:40:23;;;;;;;55.00;16.77;;;;;;;;;;4955607;29;20058;-83
2024/04/27 03:42:52;;;;;;;53.65;15.35;;;;;;;;;;4946973;29;20054;-82
2024/04/27 03:45:19;;;;;;;53.45;15.13;;;;;;;;;;4963893;29;20453;-78
2024/04/27 03:47:45;;;;;;;45.92;15.32;;;;;;;;;;4933526;29;20070;-83
2024/04/27 03:50:11;;;;;;;54.03;14.70;;;;;;;;;;4979336;28;20035;-83
2024/04/27 03:52:37;;;;;;;46.65;15.00;;;;;;;;;;4956839;29;20040;-81
2024/04/27 03:55:03;;;;;;;38.95;14.40;;;;;;;;;;4945589;29;20055;-82
2024/04/27 03:57:30;;;;;;;44.30;14.25;;;;;;;;;;4968330;29;20027;-81
2024/04/27 03:59:56;;;;;;;46.45;14.27;;;;;;;;;;4961094;29;20042;-79
2024/04/27 04:02:23;;;;;;;41.75;15.18;;;;;;;;;;4976975;28;20096;-81
2024/04/27 04:04:49;;;;;;;48.53;15.63;;;;;;;;;;4967859;29;20053;-84
2024/04/27 04:07:14;;;;;;;45.63;15.52;;;;;;;;;;4974891;29;20129;-79
2024/04/27 04:09:40;;;;;;;46.50;14.75;;;;;;;;;;4973399;28;20789;-79
2024/04/27 04:12:06;;;;;;;42.75;14.00;;;;;;;;;;4977416;29;20078;-83
2024/04/27 04:14:32;;;;;;;44.38;15.00;;;;;;;;;;4973013;29;20067;-80
2024/04/27 04:16:58;;;;;;;43.20;14.90;;;;;;;;;;4934007;29;20039;-81
2024/04/27 04:19:24;;;;;;;38.55;13.40;;;;;;;;;;4972479;29;20106;-83
2024/04/27 04:21:50;;;;;;;53.63;13.45;;;;;;;;;;4971559;29;20122;-83
2024/04/27 04:24:16;;;;;;;58.38;14.18;;;;;;;;;;4968790;28;20454;-80
2024/04/27 04:26:42;;;;;;;45.58;12.73;;;;;;;;;;4981454;28;20447;-81
2024/04/27 04:29:07;;;;;;;53.22;14.77;;;;;;;;;;4948342;29;20148;-83
2024/04/27 04:31:34;;;;;;;49.97;13.48;;;;;;;;;;4971709;29;20020;-81
2024/04/27 04:34:00;;;;;;;47.58;14.32;;;;;;;;;;4964403;29;20075;-82
2024/04/27 04:36:26;;;;;;;43.65;13.98;;;;;;;;;;4956319;29;20053;-79
2024/04/27 04:38:52;;;;;;;49.17;16.15;;;;;;;;;;4945815;29;20075;-82
2024/04/27 04:41:18;;;;;;;55.42;14.75;;;;;;;;;;4965452;28;20043;-81
2024/04/27 04:43:44;;;;;;;46.50;14.95;;;;;;;;;;4965073;29;20032;-82
2024/04/27 04:46:10;;;;;;;50.45;14.95;;;;;;;;;;4972417;28;20157;-82
2024/04/27 04:48:37;;;;;;;48.22;18.05;;;;;;;;;;4959494;28;20153;-82
2024/04/27 04:51:04;;;;;;;49.47;16.23;;;;;;;;;;4984187;28;20038;-81
2024/04/27 04:53:30;;;;;;;57.53;15.63;;;;;;;;;;4980568;28;20074;-83
2024/04/27 04:55:57;;;;;;;50.88;15.25;;;;;;;;;;4959399;29;20054;-84
2024/04/27 04:58:24;;;;;;;47.75;14.23;;;;;;;;;;4916953;28;20038;-82
2024/04/27 05:00:50;;;;;;;57.22;14.93;;;;;;;;;;4953770;28;20011;-81
2024/04/27 05:03:16;;;;;;;46.70;14.70;;;;;;;;;;4980582;28;20062;-79
2024/04/27 05:05:42;;;;;;;57.22;17.58;;;;;;;;;;4978687;28;20032;-82
2024/04/27 05:08:14;;;;;;;47.78;14.60;;;;;;;;;;4937541;29;20080;-80
2024/04/27 05:10:40;;;;;;;35.35;12.23;;;;;;;;;;4916774;28;20051;-81
2024/04/27 05:13:06;;;;;;;45.45;14.13;;;;;;;;;;4915419;28;20059;-80
2024/04/27 05:15:41;;;;;;;45.40;13.30;;;;;;;;;;4929938;28;20063;-78
2024/04/27 05:18:10;;;;;;;51.47;12.45;;;;;;;;;;4947938;28;20050;-79
2024/04/27 05:20:36;;;;;;;45.28;12.68;;;;;;;;;;4927025;28;20059;-78
2024/04/27 05:23:02;;;;;;;37.42;12.73;;;;;;;;;;4927359;29;20044;-79
2024/04/27 05:25:28;;;;;;;43.08;13.60;;;;;;;;;;4962644;28;20041;-80
2024/04/27 05:28:02;;;;;;;45.35;12.85;;;;;;;;;;4918020;28;20459;-80
2024/04/27 05:30:28;;;;;;;53.88;13.88;;;;;;;;;;4916301;28;20542;-79
2024/04/27 05:32:54;;;;;;;47.28;13.75;;;;;;;;;;4932858;29;20103;-78
2024/04/27 05:35:20;;;;;;;45.42;12.30;;;;;;;;;;4911789;28;20050;-78
2024/04/27 05:37:46;;;;;;;51.10;13.10;;;;;;;;;;4930624;29;20043;-82
2024/04/27 05:40:21;;;;;;;35.67;12.82;;;;;;;;;;4943118;28;20038;-78
2024/04/27 05:42:54;;;;;;;39.30;12.98;;;;;;;;;;4944155;28;20043;-79
2024/04/27 05:45:33;;;;;;;47.65;13.80;;;;;;;;;;4942483;28;20066;-82
2024/04/27 05:47:59;;;;;;;48.55;14.38;;;;;;;;;;4986334;28;20019;-84
2024/04/27 05:50:24;;;;;;;43.70;14.55;;;;;;;;;;4941174;28;20052;-82
2024/04/27 05:53:02;;;;;;;54.55;15.27;;;;;;;;;;4984598;28;20043;-83
2024/04/27 05:55:29;;;;;;;46.50;14.40;;;;;;;;;;4924788;28;20050;-82
2024/04/27 05:58:22;;;;;;;45.83;14.93;;;;;;;;;;4952118;29;20424;-81
2024/04/27 06:00:53;;;;;;;59.53;16.60;;;;;;;;;;4964528;28;20057;-82
2024/04/27 06:03:18;;;;;;;60.63;19.48;;;;;;;;;;4941588;28;20114;-84
2024/04/27 06:05:44;;;;;;;59.85;19.95;;;;;;;;;;4958006;28;20089;-83
2024/04/27 06:08:14;;;;;;;50.00;21.23;;;;;;;;;;4953526;28;20043;-80
2024/04/27 06:10:40;;;;;;;52.08;20.08;;;;;;;;;;4938723;28;20046;-78
2024/04/27 06:13:12;;;;;;;52.10;20.20;;;;;;;;;;4959884;28;20047;-78
2024/04/27 06:15:38;;;;;;;66.78;23.52;;;;;;;;;;4954778;28;20059;-77
2024/04/27 06:18:04;;;;;;;53.45;20.02;;;;;;;;;;4937278;29;20663;-76
2024/04/27 06:20:29;;;;;;;58.33;19.55;;;;;;;;;;4957921;28;20066;-77
2024/04/27 06:22:55;;;;;;;65.72;21.15;;;;;;;;;;4942483;28;20043;-77
2024/04/27 06:25:21;;;;;;;67.78;21.70;;;;;;;;;;4954907;28;20055;-77
2024/04/27 06:27:47;;;;;;;52.90;19.92;;;;;;;;;;4959603;28;20130;-78
2024/04/27 06:30:13;;;;;;;56.67;19.92;;;;;;;;;;4959699;28;20054;-77
2024/04/27 06:32:39;;;;;;;68.40;21.73;;;;;;;;;;4961113;28;20035;-81
2024/04/27 06:35:07;;;;;;;58.78;22.40;;;;;;;;;;4941197;29;20546;-80
2024/04/27 06:40:29;;;;;;;45.15;17.50;;;;;;;;;;4946845;28;20069;-82
2024/04/27 06:42:55;;;;;;;49.60;18.30;;;;;;;;;;4957861;28;20446;-81
2024/04/27 06:45:21;;;;;;;52.92;19.70;;;;;;;;;;4953738;28;20108;-83
2024/04/27 06:47:56;;;;;;;40.10;18.50;;;;;;;;;;4950884;28;20054;-81
2024/04/27 06:50:46;;;;;;;55.10;19.80;;;;;;;;;;4916842;29;20047;-81
2024/04/27 06:53:12;;;;;;;49.78;19.23;;;;;;;;;;4937663;29;20048;-83
2024/04/27 06:55:40;;;;;;;55.72;20.08;;;;;;;;;;4941830;29;20079;-81
2024/04/27 06:58:06;;;;;;;49.58;19.27;;;;;;;;;;4923568;29;20044;-82
2024/04/27 07:00:32;;;;;;;57.13;20.95;;;;;;;;;;4936695;29;20056;-81
2024/04/27 07:03:01;;;;;;;46.17;14.25;;;;;;;;;;4920628;29;20035;-78
2024/04/27 07:05:28;;;;;;;55.17;18.58;;;;;;;;;;4919206;29;20079;-78
2024/04/27 07:07:54;;;;;;;42.45;18.33;;;;;;;;;;4919213;29;20134;-78
2024/04/27 07:13:12;;;;;;;;;;;;;;;;;;4932580;29;20119;-77
2024/04/27 07:15:46;;;;;;;23.40;9.93;;;;;;;;;;4918595;29;19926;-74
2024/04/27 07:18:14;;;;;;;17.10;10.25;;;;;;;;;;4931320;29;20036;-78
2024/04/27 07:20:40;;;;;;;18.70;8.73;;;;;;;;;;4931391;29;20130;-79
2024/04/27 07:23:12;;;;;;;11.32;6.03;;;;;;;;;;4923845;29;20043;-82
2024/04/27 07:25:38;;;;;;;9.60;5.03;;;;;;;;;;4927710;29;20047;-80
2024/04/27 07:28:16;;;;;;;2.17;1.95;;;;;;;;;;4914855;29;20043;-77
2024/04/27 07:30:43;;;;;;;2.13;1.70;;;;;;;;;;4914452;29;20056;-76
2024/04/27 07:33:43;;;;;;;3.40;1.77;;;;;;;;;;4907365;29;20542;-76
2024/04/27 07:36:39;;;;;;;1.88;1.77;;;;;;;;;;4948820;29;20134;-74
2024/04/27 07:39:05;;;;;;;2.05;1.50;;;;;;;;;;4944263;28;20596;-78
2024/04/27 07:41:32;;;;;;;2.20;1.35;;;;;;;;;;4944108;28;20059;-77
2024/04/27 07:44:00;;;;;;;2.95;1.58;;;;;;;;;;4928217;29;20139;-76
2024/04/27 07:46:44;;;;;;;1.40;1.30;;;;;;;;;;4930539;29;20143;-79
2024/04/27 07:49:29;;;;;;;2.10;1.45;;;;;;;;;;4893331;29;20047;-75
2024/04/27 07:51:58;;;;;;;2.25;2.05;;;;;;;;;;4946042;29;20272;-79
2024/04/27 07:54:33;;;;;;;3.55;1.85;;;;;;;;;;4939828;29;20063;-77
2024/04/27 07:57:02;;;;;;;1.55;1.50;;;;;;;;;;4900444;29;20063;-75
2024/04/27 07:59:33;;;;;;;1.80;1.70;;;;;;;;;;4926089;29;20067;-77
2024/04/27 08:02:06;;;;;;;2.30;2.10;;;;;;;;;;4913792;29;20042;-77
2024/04/27 08:05:15;;;;;;;2.30;2.05;;;;;;;;;;4923324;29;20064;-77
2024/04/27 08:08:01;;;;;;;2.58;1.60;;;;;;;;;;4904955;29;20051;-77
2024/04/27 08:10:27;;;;;;;7.05;1.75;;;;;;;;;;4882883;29;20100;-78
2024/04/27 08:12:58;;;;;;;;;;;;;;;;;;4923704;29;20052;-78
2024/04/27 08:15:24;;;;;;;1.58;1.45;;;;;;;;;;4927517;29;20347;-77
2024/04/27 08:17:50;;;;;;;1.98;1.80;;;;;;;;;;4905600;29;20424;-77
2024/04/27 08:20:16;;;;;;;1.58;1.48;;;;;;;;;;4938584;29;20051;-78
2024/04/27 08:22:45;;;;;;;2.05;1.80;;;;;;;;;;4931543;29;20043;-78
2024/04/27 08:25:11;;;;;;;4.20;2.33;;;;;;;;;;4919641;29;20375;-79
2024/04/27 08:27:38;;;;;;;2.10;1.65;;;;;;;;;;4926137;29;20067;-77
2024/04/27 08:30:04;;;;;;;2.00;1.90;;;;;;;;;;4923578;29;20078;-75
2024/04/27 08:32:34;;;;;;;3.72;2.28;;;;;;;;;;4941167;29;20420;-79
2024/04/27 08:35:00;;;;;;;1.83;1.73;;;;;;;;;;4897656;29;20439;-78
2024/04/27 08:37:32;;;;;;;2.33;2.10;;;;;;;;;;4911889;29;20031;-78
2024/04/27 08:40:02;;;;;;;3.20;2.25;;;;;;;;;;4889163;29;20059;-80
2024/04/27 08:42:29;;;;;;;2.38;2.25;;;;;;;;;;4933812;29;20039;-79
2024/04/27 08:44:56;;;;;;;2.95;2.40;;;;;;;;;;4898771;29;20044;-78
2024/04/27 08:47:21;;;;;;;5.22;2.47;;;;;;;;;;4911949;28;20431;-78
2024/04/27 08:49:49;;;;;;;3.45;2.40;;;;;;;;;;4911268;28;20051;-78
2024/04/27 08:52:30;;;;;;;2.30;2.10;;;;;;;;;;4935028;29;20043;-79
2024/04/27 08:55:28;;;;;;;2.58;2.40;;;;;;;;;;4953186;28;20147;-77
2024/04/27 08:57:54;;;;;;;3.30;2.13;;;;;;;;;;4936407;29;20043;-77
2024/04/27 09:00:20;;;;;;;2.10;2.00;;;;;;;;;;4936046;29;20054;-78
2024/04/27 09:02:46;;;;;;;2.40;2.20;;;;;;;;;;4945650;28;20035;-79
2024/04/27 09:05:13;;;;;;;3.85;2.10;;;;;;;;;;4930186;29;20039;-80
2024/04/27 09:07:38;;;;;;;3.30;2.20;;;;;;;;;;4920005;29;20223;-80
2024/04/27 09:10:05;;;;;;;3.38;2.30;;;;;;;;;;4935188;29;20055;-81
2024/04/27 09:12:34;;;;;;;5.70;2.92;;;;;;;;;;4961742;28;20146;-81
2024/04/27 09:15:00;;;;;;;1.95;1.80;;;;;;;;;;4937274;28;20051;-78
2024/04/27 09:17:28;;;;;;;5.22;2.13;;;;;;;;;;4931658;29;20035;-79
2024/04/27 09:19:54;;;;;;;4.97;2.45;;;;;;;;;;4951277;28;20084;-79
2024/04/27 09:22:20;;;;;;;2.65;2.10;;;;;;;;;;4956043;28;20047;-80
2024/04/27 09:24:52;;;;;;;2.92;2.40;;;;;;;;;;4955131;29;20059;-74
2024/04/27 09:27:18;;;;;;;2.45;1.60;;;;;;;;;;4950927;28;20071;-73
2024/04/27 09:29:44;;;;;;;2.10;1.92;;;;;;;;;;4944972;29;20109;-74
2024/04/27 09:32:10;;;;;;;1.80;1.70;;;;;;;;;;4951698;28;20464;-75
2024/04/27 09:34:52;;;;;;;1.88;1.70;;;;;;;;;;4914442;29;20046;-74
2024/04/27 09:37:33;;;;;;;3.10;1.73;;;;;;;;;;4937192;28;20054;-74
2024/04/27 09:40:01;;;;;;;1.35;1.30;;;;;;;;;;4930094;29;20035;-77
2024/04/27 09:42:30;;;;;;;2.60;1.65;;;;;;;;;;4949810;28;20043;-79
2024/04/27 09:44:59;;;;;;;2.45;1.60;;;;;;;;;;4954578;29;20554;-77
2024/04/27 09:47:25;;;;;;;3.03;1.60;;;;;;;;;;4955634;28;20047;-77
2024/04/27 09:49:54;;;;;;;2.92;2.13;;;;;;;;;;4964380;28;20047;-78
2024/04/27 09:52:20;;;;;;;2.35;1.70;;;;;;;;;;4938564;29;20050;-77
2024/04/27 09:54:48;;;;;;;5.63;2.20;;;;;;;;;;4934619;28;20105;-77
2024/04/27 09:57:14;;;;;;;2.65;2.00;;;;;;;;;;4959838;28;20118;-78
2024/04/27 09:59:41;;;;;;;3.08;2.25;;;;;;;;;;4923677;28;20114;-76
2024/04/27 10:02:07;;;;;;;4.75;2.40;;;;;;;;;;4940036;29;20039;-78
2024/04/27 10:04:33;;;;;;;6.40;2.28;;;;;;;;;;4954604;28;20090;-78
2024/04/27 10:07:00;;;;;;;4.05;2.17;;;;;;;;;;4927689;28;20362;-76
2024/04/27 10:09:29;;;;;;;4.72;2.75;;;;;;;;;;4956728;28;20136;-77
2024/04/27 10:11:55;;;;;;;3.08;2.10;;;;;;;;;;4928863;29;20486;-79
2024/04/27 10:14:25;;;;;;;2.10;2.00;;;;;;;;;;4923414;29;20090;-79
2024/04/27 10:17:01;;;;;;;2.75;2.53;;;;;;;;;;4946508;29;20086;-78
2024/04/27 10:19:27;;;;;;;2.05;1.95;;;;;;;;;;4955118;28;20137;-78
2024/04/27 10:21:55;;;;;;;2.00;1.90;;;;;;;;;;4926834;29;20039;-75
2024/04/27 10:24:21;;;;;;;3.47;2.35;;;;;;;;;;4957074;28;20138;-77
2024/04/27 10:26:47;;;;;;;2.05;1.92;;;;;;;;;;4917529;28;20046;-77
2024/04/27 10:29:13;;;;;;;3.28;2.20;;;;;;;;;;4963439;28;20054;-78
2024/04/27 10:31:39;;;;;;;2.40;2.20;;;;;;;;;;4944906;28;20043;-78
2024/04/27 10:34:05;;;;;;;3.42;2.92;;;;;;;;;;4964625;28;20423;-76
2024/04/27 10:39:15;;;;;;;3.47;2.42;;;;;;;;;;4945905;28;20066;-78
2024/04/27 10:41:41;;;;;;;3.90;2.97;;;;;;;;;;4918951;28;20133;-77
2024/04/27 10:44:26;;;;;;;4.70;3.10;;;;;;;;;;4945403;28;20043;-78
2024/04/27 10:46:56;;;;;;;6.07;3.00;;;;;;;;;;4944120;29;20531;-78
2024/04/27 10:49:22;;;;;;;3.03;2.75;;;;;;;;;;4916622;29;20520;-78
2024/04/27 10:51:48;;;;;;;6.97;3.80;;;;;;;;;;4932851;29;20043;-78
2024/04/27 10:54:13;;;;;;;4.88;3.20;;;;;;;;;;4935523;29;20054;-76
2024/04/27 10:56:42;;;;;;;3.53;3.22;;;;;;;;;;4943922;29;20036;-78
2024/04/27 10:59:08;;;;;;;3.40;3.10;;;;;;;;;;4936902;29;20063;-78
2024/04/27 11:01:34;;;;;;;2.88;2.67;;;;;;;;;;4950403;29;20039;-78
2024/04/27 11:04:03;;;;;;;4.22;3.05;;;;;;;;;;4932525;29;20141;-77
2024/04/27 11:06:33;;;;;;;5.32;2.47;;;;;;;;;;4951049;29;20043;-76
2024/04/27 11:11:43;;;;;;;2.55;2.42;;;;;;;;;;4922210;29;20044;-76
2024/04/27 11:14:10;;;;;;;3.22;2.92;;;;;;;;;;4934769;29;20539;-77
2024/04/27 11:16:36;;;;;;;3.47;3.10;;;;;;;;;;4934406;29;20119;-76
2024/04/27 11:19:03;;;;;;;3.00;2.67;;;;;;;;;;4950741;28;20051;-74
2024/04/27 11:21:29;;;;;;;2.80;2.60;;;;;;;;;;4940813;29;20048;-77
2024/04/27 11:23:55;;;;;;;7.75;3.50;;;;;;;;;;4949381;29;20054;-78
2024/04/27 11:26:23;;;;;;;5.38;3.25;;;;;;;;;;4936878;29;20074;-76
2024/04/27 11:28:49;;;;;;;3.20;2.60;;;;;;;;;;4919716;29;20070;-75
2024/04/27 11:31:15;;;;;;;2.55;2.42;;;;;;;;;;4931843;29;20051;-76
2024/04/27 11:33:41;;;;;;;3.47;3.28;;;;;;;;;;4916639;29;20078;-77
2024/04/27 11:36:06;;;;;;;3.88;2.85;;;;;;;;;;4928326;29;20171;-76
2024/04/27 11:38:32;;;;;;;3.03;2.58;;;;;;;;;;4940014;28;20040;-76
2024/04/27 11:41:01;;;;;;;7.38;4.07;;;;;;;;;;4918813;29;20067;-76
2024/04/27 11:43:28;;;;;;;3.97;3.67;;;;;;;;;;4903455;29;20443;-76
2024/04/27 11:45:54;;;;;;;3.45;3.03;;;;;;;;;;4919610;29;20040;-76
2024/04/27 11:48:20;;;;;;;5.05;4.55;;;;;;;;;;4939708;29;20070;-76
2024/04/27 11:50:46;;;;;;;6.57;5.50;;;;;;;;;;4958203;28;20078;-76
2024/04/27 11:53:13;;;;;;;5.35;4.90;;;;;;;;;;4945645;29;20051;-76
2024/04/27 11:55:39;;;;;;;4.05;3.75;;;;;;;;;;4948302;29;20074;-75
2024/04/27 11:58:04;;;;;;;4.25;3.95;;;;;;;;;;4952829;29;20126;-76
2024/04/27 12:00:31;;;;;;;5.75;5.30;;;;;;;;;;4937673;29;20603;-76
2024/04/27 12:02:59;;;;;;;8.10;3.53;;;;;;;;;;4952222;29;20039;-74
2024/04/27 12:05:25;;;;;;;5.55;5.20;;;;;;;;;;4944179;29;20063;-74
2024/04/27 12:07:51;;;;;;;5.38;4.97;;;;;;;;;;4964094;29;20047;-76
2024/04/27 12:10:20;;;;;;;4.25;3.88;;;;;;;;;;4957865;29;20047;-77
2024/04/27 12:12:46;;;;;;;8.13;4.80;;;;;;;;;;4967217;29;20039;-76
2024/04/27 12:15:12;;;;;;;3.70;3.45;;;;;;;;;;4961847;29;20055;-75
2024/04/27 12:17:38;;;;;;;5.20;4.53;;;;;;;;;;4964348;29;20039;-74
2024/04/27 12:20:05;;;;;;;4.55;4.25;;;;;;;;;;4954978;28;20042;-75
2024/04/27 12:22:31;;;;;;;6.80;4.00;;;;;;;;;;4951959;28;20051;-78
2024/04/27 12:24:57;;;;;;;3.63;3.38;;;;;;;;;;4956364;28;20038;-75
2024/04/27 12:27:23;;;;;;;4.68;3.88;;;;;;;;;;4951698;28;20043;-75
2024/04/27 12:29:49;;;;;;;4.50;4.10;;;;;;;;;;4931715;29;20427;-74
2024/04/27 12:32:15;;;;;;;4.05;3.65;;;;;;;;;;4950577;29;20043;-76
2024/04/27 12:34:41;;;;;;;4.78;3.38;;;;;;;;;;4941515;29;20055;-76
2024/04/27 12:37:07;;;;;;;3.75;3.45;;;;;;;;;;4952952;28;20139;-76
2024/04/27 12:39:33;;;;;;;3.65;3.45;;;;;;;;;;4951285;28;20065;-76
2024/04/27 12:41:59;;;;;;;5.93;3.70;;;;;;;;;;4952524;29;20566;-75
2024/04/27 12:44:25;;;;;;;4.15;3.40;;;;;;;;;;4927681;29;20066;-75
2024/04/27 12:46:51;;;;;;;4.05;3.25;;;;;;;;;;4952143;29;20051;-76
2024/04/27 12:49:17;;;;;;;4.80;3.40;;;;;;;;;;4942941;28;20125;-75
2024/04/27 12:51:43;;;;;;;5.57;3.60;;;;;;;;;;4961423;28;20047;-76
2024/04/27 12:54:12;;;;;;;6.10;4.00;;;;;;;;;;4951841;28;20419;-76
2024/04/27 12:56:38;;;;;;;2.90;2.72;;;;;;;;;;4951816;28;20047;-75
2024/04/27 12:59:04;;;;;;;2.53;2.42;;;;;;;;;;4941932;28;20043;-75
2024/04/27 13:01:30;;;;;;;2.85;2.65;;;;;;;;;;4951690;28;20038;-76
2024/04/27 13:03:57;;;;;;;2.70;2.60;;;;;;;;;;4935430;29;20058;-75
2024/04/27 13:06:23;;;;;;;2.95;2.72;;;;;;;;;;4923540;29;20740;-76
2024/04/27 13:08:49;;;;;;;3.53;2.83;;;;;;;;;;4937177;29;20340;-75
2024/04/27 13:11:14;;;;;;;3.80;2.80;;;;;;;;;;4950975;29;20571;-76
2024/04/27 13:13:40;;;;;;;2.60;2.50;;;;;;;;;;4962834;28;20614;-76
2024/04/27 13:16:06;;;;;;;3.35;3.08;;;;;;;;;;4942681;29;20058;-76
2024/04/27 13:18:32;;;;;;;3.28;3.17;;;;;;;;;;4956103;28;20129;-76
2024/04/27 13:20:59;;;;;;;2.90;2.70;;;;;;;;;;4943827;29;20055;-77
2024/04/27 13:23:25;;;;;;;2.58;2.47;;;;;;;;;;4947572;29;20069;-77
2024/04/27 13:25:51;;;;;;;2.80;2.70;;;;;;;;;;4954945;28;20126;-76
2024/04/27 13:28:16;;;;;;;2.72;2.53;;;;;;;;;;4950449;29;20062;-77
2024/04/27 13:30:42;;;;;;;2.85;2.65;;;;;;;;;;4948123;28;20527;-77
2024/04/27 13:33:08;;;;;;;3.10;2.80;;;;;;;;;;4939800;29;20039;-77
2024/04/27 13:35:34;;;;;;;2.70;2.60;;;;;;;;;;4955703;28;20047;-77
2024/04/27 13:38:00;;;;;;;3.72;3.45;;;;;;;;;;4941271;29;20567;-77
2024/04/27 13:40:29;;;;;;;3.30;3.10;;;;;;;;;;4953914;28;20201;-77
2024/04/27 13:42:55;;;;;;;3.55;3.35;;;;;;;;;;4966238;28;20077;-75
2024/04/27 13:45:21;;;;;;;4.15;3.55;;;;;;;;;;4953885;28;20470;-74
2024/04/27 13:47:48;;;;;;;3.95;3.63;;;;;;;;;;4954329;28;20523;-79
2024/04/27 13:50:14;;;;;;;6.85;3.72;;;;;;;;;;4943981;28;20046;-78
2024/04/27 13:52:40;;;;;;;2.90;2.80;;;;;;;;;;4941701;28;20412;-76
2024/04/27 13:55:06;;;;;;;4.15;3.85;;;;;;;;;;4961089;28;20051;-77
2024/04/27 13:57:32;;;;;;;3.58;3.38;;;;;;;;;;4964151;28;20038;-78
2024/04/27 13:59:58;;;;;;;4.03;3.72;;;;;;;;;;4964851;28;20054;-74
2024/04/27 14:02:23;;;;;;;4.18;3.50;;;;;;;;;;4938165;28;20039;-76
2024/04/27 14:04:49;;;;;;;3.13;2.92;;;;;;;;;;4964847;28;20658;-77
2024/04/27 14:07:15;;;;;;;3.83;3.33;;;;;;;;;;4964291;28;20536;-74
2024/04/27 14:09:41;;;;;;;3.33;3.17;;;;;;;;;;4938076;28;20475;-75
2024/04/27 14:12:07;;;;;;;2.45;2.25;;;;;;;;;;4967283;28;20430;-76
2024/04/27 14:14:33;;;;;;;3.22;3.00;;;;;;;;;;4934988;28;20058;-76
2024/04/27 14:16:59;;;;;;;4.88;2.60;;;;;;;;;;4947819;28;20449;-76
2024/04/27 14:19:25;;;;;;;7.05;2.83;;;;;;;;;;4952384;28;20053;-77
2024/04/27 14:21:50;;;;;;;4.53;2.65;;;;;;;;;;4949471;28;20457;-78
2024/04/27 14:24:16;;;;;;;2.60;2.50;;;;;;;;;;4946929;28;20046;-77
2024/04/27 14:26:42;;;;;;;9.15;2.67;;;;;;;;;;4942468;29;20035;-77
2024/04/27 14:29:08;;;;;;;2.95;2.65;;;;;;;;;;4923254;28;20046;-76
2024/04/27 14:31:34;;;;;;;2.60;2.45;;;;;;;;;;4957241;28;20058;-77
2024/04/27 14:33:59;;;;;;;2.75;2.55;;;;;;;;;;4943794;29;20047;-78
2024/04/27 14:36:33;;;;;;;3.40;2.88;;;;;;;;;;4959932;28;20081;-77
2024/04/27 14:39:00;;;;;;;4.43;2.45;;;;;;;;;;4960833;28;20050;-76
2024/04/27 14:41:26;;;;;;;4.85;2.85;;;;;;;;;;4943232;28;20071;-77
2024/04/27 14:43:52;;;;;;;2.92;2.60;;;;;;;;;;4964526;28;20073;-76
2024/04/27 14:46:17;;;;;;;2.65;2.50;;;;;;;;;;4912778;28;20113;-75
2024/04/27 14:48:43;;;;;;;2.50;2.40;;;;;;;;;;4950564;28;20062;-75
2024/04/27 14:51:09;;;;;;;3.03;2.50;;;;;;;;;;4956691;28;20039;-74